createdAt,value
2019-04-25T00:02:43.993Z,98953.59
2019-04-25T00:05:14.790Z,98956.41
2019-04-25T00:07:44.919Z,98948.28
2019-04-25T00:10:14.464Z,98944.73
2019-04-25T00:12:44.579Z,98944.48
2019-04-25T00:15:14.591Z,98939.39
2019-04-25T00:17:44.597Z,98933.75
2019-04-25T00:20:14.741Z,98942.82
2019-04-25T00:23:05.303Z,98940.57
2019-04-25T00:25:52.813Z,98952.43
2019-04-25T00:28:22.146Z,98956.42
2019-04-25T00:30:52.278Z,98947.80
2019-04-25T00:33:22.406Z,98949.69
2019-04-25T00:35:52.711Z,98952.97
2019-04-25T00:38:22.263Z,98948.50
2019-04-25T00:40:52.490Z,98952.53
2019-04-25T00:43:22.430Z,98950.31
2019-04-25T00:45:52.668Z,98948.66
2019-04-25T00:48:22.365Z,98946.50
2019-04-25T00:50:54.377Z,98948.73
2019-04-25T00:53:22.431Z,98953.08
2019-04-25T00:55:52.511Z,98953.08
2019-04-25T00:58:29.521Z,98953.96
2019-04-25T01:01:21.801Z,98948.98
2019-04-25T01:03:53.306Z,98958.05
2019-04-25T01:06:22.095Z,98963.48
2019-04-25T01:08:51.811Z,98959.34
2019-04-25T01:11:22.111Z,98958.61
2019-04-25T01:13:52.514Z,98963.91
2019-04-25T01:16:22.108Z,98967.89
2019-04-25T01:18:51.309Z,98970.88
2019-04-25T01:21:20.487Z,98966.42
2019-04-25T01:23:49.661Z,98962.65
2019-04-25T01:26:18.926Z,98967.80
2019-04-25T01:28:48.074Z,98962.72
2019-04-25T01:31:19.805Z,98964.75
2019-04-25T01:33:48.943Z,98960.00
2019-04-25T01:36:37.046Z,98967.99
2019-04-25T01:39:29.510Z,98969.66
2019-04-25T01:42:23.664Z,98975.88
2019-04-25T01:44:53.834Z,98971.64
2019-04-25T01:47:24.763Z,98963.62
2019-04-25T01:49:54.584Z,98963.47
2019-04-25T01:52:24.940Z,98969.38
2019-04-25T01:54:55.075Z,98969.32
2019-04-25T01:57:26.042Z,98964.87
2019-04-25T01:59:56.288Z,98969.84
2019-04-25T02:02:27.133Z,98976.90
2019-04-25T02:04:57.981Z,98975.48
2019-04-25T02:07:27.113Z,98973.62
2019-04-25T02:09:57.314Z,98989.53
2019-04-25T02:12:38.394Z,98998.12
2019-04-25T02:15:07.547Z,98997.03
2019-04-25T02:17:36.685Z,98998.56
2019-04-25T02:20:06.281Z,98993.13
2019-04-25T02:22:35.776Z,98994.98
2019-04-25T02:25:05.265Z,98995.78
2019-04-25T02:27:34.438Z,98998.67
2019-04-25T02:30:06.613Z,98993.88
2019-04-25T02:32:37.207Z,99002.05
2019-04-25T02:35:09.288Z,99005.59
2019-04-25T02:37:36.990Z,99006.52
2019-04-25T02:40:08.501Z,99018.90
2019-04-25T02:42:38.001Z,99020.19
2019-04-25T02:45:37.580Z,99021.84
2019-04-25T02:48:34.280Z,99027.96
2019-04-25T02:51:08.843Z,99020.53
2019-04-25T02:53:40.956Z,99030.65
2019-04-25T02:56:27.443Z,99028.78
2019-04-25T02:58:40.976Z,99031.24
2019-04-25T03:01:19.432Z,99029.23
2019-04-25T03:03:44.972Z,99023.34
2019-04-25T03:06:14.990Z,99029.02
2019-04-25T03:08:45.025Z,99025.06
2019-04-25T03:11:15.148Z,99026.22
2019-04-25T03:13:44.497Z,99034.86
2019-04-25T03:16:14.115Z,99030.19
2019-04-25T03:18:58.918Z,99028.72
2019-04-25T03:21:31.400Z,99032.06
2019-04-25T03:24:01.485Z,99035.72
2019-04-25T03:26:39.803Z,99033.69
2019-04-25T03:29:01.597Z,99028.16
2019-04-25T03:31:30.723Z,99040.48
2019-04-25T03:34:02.223Z,99039.06
2019-04-25T03:36:30.816Z,99037.30
2019-04-25T03:39:00.843Z,99042.25
2019-04-25T03:41:29.985Z,99051.91
2019-04-25T03:43:59.153Z,99050.97
2019-04-25T03:46:28.273Z,99056.52
2019-04-25T03:48:57.431Z,99045.94
2019-04-25T03:51:26.564Z,99051.05
2019-04-25T03:53:55.678Z,99058.27
2019-04-25T03:56:25.000Z,99052.77
2019-04-25T03:58:54.536Z,99037.38
2019-04-25T04:01:25.605Z,99033.37
2019-04-25T04:03:54.777Z,99032.30
2019-04-25T04:06:24.139Z,99023.13
2019-04-25T04:08:53.885Z,99011.14
2019-04-25T04:11:23.785Z,98994.30
2019-04-25T04:13:53.793Z,98987.37
2019-04-25T04:16:26.903Z,98977.70
2019-04-25T04:18:57.437Z,98970.07
2019-04-25T04:21:36.064Z,98952.05
2019-04-25T04:24:14.164Z,98948.39
2019-04-25T04:26:46.121Z,98950.41
2019-04-25T04:29:15.346Z,98962.19
2019-04-25T04:31:44.652Z,98967.48
2019-04-25T04:34:14.693Z,98972.87
2019-04-25T04:36:46.571Z,98982.44
2019-04-25T04:39:16.873Z,98993.27
2019-04-25T04:41:46.482Z,99000.69
2019-04-25T04:44:16.447Z,99006.09
2019-04-25T04:46:45.616Z,99013.03
2019-04-25T04:49:15.325Z,99039.48
2019-04-25T04:51:44.560Z,99045.97
2019-04-25T04:54:14.643Z,99062.67
2019-04-25T04:56:44.578Z,99071.05
2019-04-25T04:59:14.672Z,99078.81
2019-04-25T05:02:16.527Z,99080.77
2019-04-25T05:05:03.578Z,99085.13
2019-04-25T05:07:58.047Z,99092.92
2019-04-25T05:10:27.220Z,99084.78
2019-04-25T05:12:56.404Z,99091.25
2019-04-25T05:15:25.528Z,99086.44
2019-04-25T05:17:56.126Z,99079.03
2019-04-25T05:20:25.245Z,99076.22
2019-04-25T05:22:55.040Z,99071.50
2019-04-25T05:25:24.783Z,99067.62
2019-04-25T05:28:00.680Z,99079.86
2019-04-25T05:30:31.146Z,99075.43
2019-04-25T05:33:00.318Z,99069.54
2019-04-25T05:35:29.522Z,99069.44
2019-04-25T05:37:58.678Z,99060.27
2019-04-25T05:40:28.004Z,99047.55
2019-04-25T05:43:05.930Z,99029.72
2019-04-25T05:45:35.039Z,99028.66
2019-04-25T05:48:06.069Z,99025.31
2019-04-25T05:50:35.274Z,99012.16
2019-04-25T05:53:04.531Z,99015.64
2019-04-25T05:55:34.291Z,99015.44
2019-04-25T05:58:03.991Z,99010.52
2019-04-25T06:00:34.312Z,99016.66
2019-04-25T06:03:03.867Z,99004.42
2019-04-25T06:05:33.641Z,99001.18
2019-04-25T06:08:04.385Z,98992.25
2019-04-25T06:10:53.847Z,98994.21
2019-04-25T06:13:51.182Z,98991.27
2019-04-25T06:16:27.013Z,98984.88
2019-04-25T06:19:19.699Z,98982.30
2019-04-25T06:21:49.248Z,98998.36
2019-04-25T06:24:42.547Z,99007.37
2019-04-25T06:27:31.772Z,99012.91
2019-04-25T06:30:15.930Z,99018.31
2019-04-25T06:32:45.263Z,99036.64
2019-04-25T06:35:14.895Z,99040.41
2019-04-25T06:37:44.049Z,99042.36
2019-04-25T06:40:14.039Z,99045.42
2019-04-25T06:42:43.842Z,99042.94
2019-04-25T06:45:38.921Z,99046.72
2019-04-25T06:48:29.797Z,99041.16
2019-04-25T06:50:58.948Z,99040.17
2019-04-25T06:53:28.426Z,99046.88
2019-04-25T06:55:57.636Z,99044.72
2019-04-25T06:58:27.549Z,99049.38
2019-04-25T07:01:00.815Z,99043.96
2019-04-25T07:03:29.432Z,99044.05
2019-04-25T07:05:58.988Z,99035.47
2019-04-25T07:08:29.071Z,99041.73
2019-04-25T07:10:58.283Z,99028.97
2019-04-25T07:13:28.363Z,99031.11
2019-04-25T07:15:57.592Z,99024.74
2019-04-25T07:18:31.208Z,99027.89
2019-04-25T07:20:57.800Z,99028.36
2019-04-25T07:23:26.943Z,99024.56
2019-04-25T07:26:03.748Z,99022.22
2019-04-25T07:28:54.892Z,99024.19
2019-04-25T07:31:44.491Z,99015.39
2019-04-25T07:34:19.367Z,99014.27
2019-04-25T07:36:48.546Z,99014.65
2019-04-25T07:39:17.880Z,99014.65
2019-04-25T07:41:47.124Z,99003.09
2019-04-25T07:44:16.277Z,98993.20
2019-04-25T07:46:45.457Z,98985.53
2019-04-25T07:49:14.593Z,98988.56
2019-04-25T07:51:45.349Z,98988.95
2019-04-25T07:54:14.605Z,98985.14
2019-04-25T07:56:44.052Z,98980.05
2019-04-25T07:59:13.912Z,98990.80
2019-04-25T08:01:43.689Z,98985.04
2019-04-25T08:04:13.769Z,98977.45
2019-04-25T08:06:44.515Z,98975.55
2019-04-25T08:09:15.328Z,98984.02
2019-04-25T08:11:44.899Z,98976.97
2019-04-25T08:14:19.227Z,98974.57
2019-04-25T08:16:51.534Z,98972.10
2019-04-25T08:19:20.933Z,98975.99
2019-04-25T08:21:50.573Z,98969.25
2019-04-25T08:24:20.273Z,98968.06
2019-04-25T08:26:49.554Z,98956.69
2019-04-25T08:29:18.709Z,98968.19
2019-04-25T08:31:47.890Z,98965.55
2019-04-25T08:34:17.060Z,98955.98
2019-04-25T08:36:46.257Z,98957.58
2019-04-25T08:39:15.452Z,98960.07
2019-04-25T08:41:45.747Z,98951.49
2019-04-25T08:44:15.008Z,98955.14
2019-04-25T08:46:48.443Z,98950.01
2019-04-25T08:49:45.770Z,98957.23
2019-04-25T08:52:14.470Z,98959.30
2019-04-25T08:54:54.637Z,98957.26
2019-04-25T08:57:44.020Z,98946.47
2019-04-25T09:00:25.447Z,98934.66
2019-04-25T09:02:58.718Z,98935.45
2019-04-25T09:05:46.258Z,98925.28
2019-04-25T09:08:15.648Z,98924.25
2019-04-25T09:10:45.036Z,98922.88
2019-04-25T09:13:14.148Z,98918.55
2019-04-25T09:15:45.456Z,98908.04
2019-04-25T09:18:14.206Z,98913.84
2019-04-25T09:20:46.361Z,98903.00
2019-04-25T09:23:14.472Z,98898.89
2019-04-25T09:25:44.755Z,98900.86
2019-04-25T09:28:14.521Z,98900.70
2019-04-25T09:30:44.840Z,98887.12
2019-04-25T09:33:14.597Z,98900.32
2019-04-25T09:35:45.733Z,98898.98
2019-04-25T09:38:14.768Z,98896.03
2019-04-25T09:40:44.522Z,98894.45
2019-04-25T09:43:14.641Z,98891.54
2019-04-25T09:46:05.726Z,98883.11
2019-04-25T09:48:44.307Z,98884.95
2019-04-25T09:51:33.589Z,98868.25
2019-04-25T09:54:24.949Z,98862.62
2019-04-25T09:56:57.215Z,98850.33
2019-04-25T09:59:29.863Z,98853.75
2019-04-25T10:01:57.702Z,98837.20
2019-04-25T10:04:26.851Z,98836.32
2019-04-25T10:06:56.206Z,98826.30
2019-04-25T10:09:26.089Z,98821.16
2019-04-25T10:11:55.359Z,98818.13
2019-04-25T10:14:55.068Z,98820.48
2019-04-25T10:17:24.274Z,98814.73
2019-04-25T10:19:53.433Z,98814.25
2019-04-25T10:22:23.741Z,98812.05
2019-04-25T10:25:00.252Z,98811.53
2019-04-25T10:27:24.234Z,98797.48
2019-04-25T10:29:56.945Z,98793.20
2019-04-25T10:32:24.381Z,98789.34
2019-04-25T10:34:53.536Z,98772.94
2019-04-25T10:37:23.073Z,98770.08
2019-04-25T10:39:54.228Z,98767.95
2019-04-25T10:42:23.926Z,98758.70
2019-04-25T10:44:56.150Z,98750.66
2019-04-25T10:47:24.219Z,98752.61
2019-04-25T10:49:55.333Z,98736.99
2019-04-25T10:52:24.259Z,98724.39
2019-04-25T10:54:54.287Z,98724.57
2019-04-25T10:57:24.946Z,98723.16
2019-04-25T11:00:05.929Z,98721.37
2019-04-25T11:02:26.587Z,98715.58
2019-04-25T11:05:01.301Z,98711.80
2019-04-25T11:07:30.456Z,98706.52
2019-04-25T11:09:59.662Z,98710.51
2019-04-25T11:12:28.809Z,98698.16
2019-04-25T11:14:57.985Z,98696.38
2019-04-25T11:17:27.149Z,98692.90
2019-04-25T11:19:56.327Z,98704.56
2019-04-25T11:22:25.540Z,98702.21
2019-04-25T11:24:55.083Z,98700.83
2019-04-25T11:27:24.668Z,98699.20
2019-04-25T11:30:08.257Z,98688.68
2019-04-25T11:32:27.499Z,98687.33
2019-04-25T11:34:57.343Z,98679.55
2019-04-25T11:37:29.419Z,98679.55
2019-04-25T11:40:04.617Z,98683.31
2019-04-25T11:42:33.933Z,98673.36
2019-04-25T11:45:05.923Z,98678.00
2019-04-25T11:47:35.577Z,98671.73
2019-04-25T11:50:05.222Z,98673.81
2019-04-25T11:52:34.747Z,98671.27
2019-04-25T11:55:04.232Z,98671.14
2019-04-25T11:57:33.448Z,98679.36
2019-04-25T12:00:04.214Z,98671.88
2019-04-25T12:02:34.371Z,98669.63
2019-04-25T12:05:03.549Z,98672.80
2019-04-25T12:07:33.825Z,98668.30
2019-04-25T12:10:04.373Z,98678.48
2019-04-25T12:12:34.740Z,98678.30
2019-04-25T12:15:04.864Z,98675.50
2019-04-25T12:17:35.301Z,98676.66
2019-04-25T12:20:04.669Z,98673.61
2019-04-25T12:22:34.336Z,98675.20
2019-04-25T12:25:04.662Z,98674.52
2019-04-25T12:27:33.863Z,98671.32
2019-04-25T12:30:03.884Z,98672.05
2019-04-25T12:32:35.284Z,98664.74
2019-04-25T12:35:06.211Z,98653.91
2019-04-25T12:37:35.469Z,98652.28
2019-04-25T12:40:07.245Z,98639.27
2019-04-25T12:42:36.410Z,98640.30
2019-04-25T12:45:37.111Z,98644.55
2019-04-25T12:48:08.203Z,98636.28
2019-04-25T12:50:37.377Z,98624.53
2019-04-25T12:53:06.817Z,98625.14
2019-04-25T12:55:35.974Z,98632.40
2019-04-25T12:58:05.864Z,98619.42
2019-04-25T13:00:47.271Z,98617.02
2019-04-25T13:03:06.902Z,98612.53
2019-04-25T13:05:36.205Z,98604.15
2019-04-25T13:08:05.568Z,98605.09
2019-04-25T13:10:35.537Z,98599.66
2019-04-25T13:13:04.937Z,98593.16
2019-04-25T13:15:34.756Z,98579.52
2019-04-25T13:18:04.387Z,98585.33
2019-04-25T13:20:33.822Z,98581.07
2019-04-25T13:23:03.574Z,98580.41
2019-04-25T13:25:34.272Z,98579.69
2019-04-25T13:28:25.243Z,98574.41
2019-04-25T13:31:23.327Z,98581.20
2019-04-25T13:34:01.524Z,98571.91
2019-04-25T13:36:30.953Z,98563.31
2019-04-25T13:39:00.176Z,98559.43
2019-04-25T13:41:29.427Z,98560.52
2019-04-25T13:43:58.942Z,98548.41
2019-04-25T13:46:28.131Z,98543.05
2019-04-25T13:48:57.281Z,98539.36
2019-04-25T13:51:26.714Z,98533.70
2019-04-25T13:53:55.905Z,98521.51
2019-04-25T13:56:26.546Z,98513.61
2019-04-25T13:58:56.051Z,98515.72
2019-04-25T14:01:25.980Z,98509.30
2019-04-25T14:03:55.640Z,98509.09
2019-04-25T14:06:24.789Z,98509.44
2019-04-25T14:08:54.060Z,98503.55
2019-04-25T14:11:24.104Z,98504.56
2019-04-25T14:13:53.401Z,98501.33
2019-04-25T14:16:34.591Z,98499.27
2019-04-25T14:19:34.732Z,98499.80
2019-04-25T14:22:04.437Z,98492.19
2019-04-25T14:24:35.686Z,98495.97
2019-04-25T14:27:04.591Z,98491.25
2019-04-25T14:29:34.807Z,98481.06
2019-04-25T14:32:05.839Z,98484.81
2019-04-25T14:34:35.017Z,98481.30
2019-04-25T14:37:04.324Z,98479.38
2019-04-25T14:39:33.512Z,98473.55
2019-04-25T14:42:02.972Z,98474.89
2019-04-25T14:44:32.350Z,98475.28
2019-04-25T14:47:01.572Z,98477.48
2019-04-25T14:49:30.754Z,98482.39
2019-04-25T14:52:00.018Z,98474.08
2019-04-25T14:54:36.097Z,98468.61
2019-04-25T14:57:09.965Z,98483.35
2019-04-25T14:59:39.579Z,98484.28
2019-04-25T15:02:08.874Z,98479.11
2019-04-25T15:04:38.054Z,98479.83
2019-04-25T15:07:07.258Z,98477.54
2019-04-25T15:09:36.575Z,98463.27
2019-04-25T15:12:05.837Z,98471.39
2019-04-25T15:14:35.072Z,98470.66
2019-04-25T15:17:04.976Z,98463.10
2019-04-25T15:19:34.148Z,98466.53
2019-04-25T15:22:03.367Z,98471.25
2019-04-25T15:24:32.785Z,98462.54
2019-04-25T15:27:01.959Z,98464.67
2019-04-25T15:29:31.148Z,98465.48
2019-04-25T15:32:00.294Z,98464.92
2019-04-25T15:34:35.979Z,98455.88
2019-04-25T15:37:11.283Z,98467.84
2019-04-25T15:39:47.976Z,98463.09
2019-04-25T15:42:42.659Z,98466.95
2019-04-25T15:45:43.106Z,98463.76
2019-04-25T15:48:12.433Z,98457.54
2019-04-25T15:50:41.669Z,98455.97
2019-04-25T15:53:10.829Z,98457.66
2019-04-25T15:55:40.789Z,98451.13
2019-04-25T15:58:10.375Z,98448.91
2019-04-25T16:00:39.630Z,98447.92
2019-04-25T16:03:08.978Z,98441.77
2019-04-25T16:05:38.469Z,98434.33
2019-04-25T16:08:07.593Z,98436.20
2019-04-25T16:10:37.178Z,98436.86
2019-04-25T16:13:07.214Z,98430.75
2019-04-25T16:15:36.413Z,98431.70
2019-04-25T16:18:06.461Z,98426.16
2019-04-25T16:20:35.796Z,98433.69
2019-04-25T16:23:05.391Z,98437.56
2019-04-25T16:25:35.421Z,98433.45
2019-04-25T16:28:04.784Z,98436.50
2019-04-25T16:30:34.566Z,98441.20
2019-04-25T16:33:04.504Z,98434.79
2019-04-25T16:35:33.668Z,98437.50
2019-04-25T16:38:03.222Z,98430.54
2019-04-25T16:40:32.404Z,98433.41
2019-04-25T16:43:03.810Z,98435.47
2019-04-25T16:45:33.858Z,98436.70
2019-04-25T16:48:03.405Z,98440.17
2019-04-25T16:50:34.221Z,98447.58
2019-04-25T16:53:03.396Z,98447.30
2019-04-25T16:55:32.865Z,98446.94
2019-04-25T16:58:02.116Z,98443.81
2019-04-25T17:00:53.115Z,98445.87
2019-04-25T17:03:24.382Z,98465.48
2019-04-25T17:05:53.603Z,98485.53
2019-04-25T17:08:22.792Z,98496.28
2019-04-25T17:10:51.956Z,98492.08
2019-04-25T17:13:21.290Z,98496.72
2019-04-25T17:16:03.686Z,98498.26
2019-04-25T17:18:38.281Z,98503.14
2019-04-25T17:21:11.600Z,98513.92
2019-04-25T17:23:39.865Z,98518.65
2019-04-25T17:26:09.518Z,98523.72
2019-04-25T17:28:41.209Z,98533.64
2019-04-25T17:31:30.019Z,98538.89
2019-04-25T17:34:18.142Z,98543.12
2019-04-25T17:36:53.688Z,98557.56
2019-04-25T17:39:42.178Z,98559.43
2019-04-25T17:42:11.440Z,98568.22
2019-04-25T17:44:40.701Z,98576.80
2019-04-25T17:47:09.897Z,98575.47
2019-04-25T17:49:39.421Z,98590.34
2019-04-25T17:52:08.522Z,98596.76
2019-04-25T17:54:38.881Z,98606.92
2019-04-25T17:57:08.246Z,98606.11
2019-04-25T17:59:37.432Z,98618.88
2019-04-25T18:02:06.698Z,98625.97
2019-04-25T18:04:35.953Z,98635.75
2019-04-25T18:07:05.702Z,98638.82
2019-04-25T18:09:35.479Z,98664.39
2019-04-25T18:12:05.465Z,98683.30
2019-04-25T18:14:35.184Z,98696.69
2019-04-25T18:17:04.617Z,98690.78
2019-04-25T18:19:38.511Z,98709.44
2019-04-25T18:22:23.795Z,98720.55
2019-04-25T18:25:17.904Z,98728.67
2019-04-25T18:28:10.776Z,98736.65
2019-04-25T18:30:41.173Z,98751.70
2019-04-25T18:33:41.811Z,98760.03
2019-04-25T18:36:29.061Z,98762.66
2019-04-25T18:39:15.194Z,98772.86
2019-04-25T18:41:48.532Z,98789.67
2019-04-25T18:44:18.044Z,98798.17
2019-04-25T18:46:47.918Z,98809.81
2019-04-25T18:49:17.138Z,98826.72
2019-04-25T18:51:56.671Z,98841.22
2019-04-25T18:54:29.165Z,98840.50
2019-04-25T18:57:11.327Z,98854.05
2019-04-25T19:00:05.702Z,98861.71
2019-04-25T19:03:03.261Z,98858.14
2019-04-25T19:05:42.846Z,98860.11
2019-04-25T19:08:12.070Z,98874.20
2019-04-25T19:10:41.339Z,98883.73
2019-04-25T19:13:12.738Z,98892.27
2019-04-25T19:15:41.518Z,98892.91
2019-04-25T19:18:10.706Z,98897.33
2019-04-25T19:20:40.008Z,98912.73
2019-04-25T19:23:09.288Z,98913.07
2019-04-25T19:25:40.146Z,98910.89
2019-04-25T19:28:09.390Z,98909.23
2019-04-25T19:30:38.664Z,98925.59
2019-04-25T19:33:09.032Z,98932.78
2019-04-25T19:35:39.510Z,98932.58
2019-04-25T19:38:09.186Z,98934.37
2019-04-25T19:40:52.491Z,98934.87
2019-04-25T19:43:34.808Z,98938.30
2019-04-25T19:46:03.983Z,98937.41
2019-04-25T19:48:33.210Z,98939.42
2019-04-25T19:51:02.395Z,98953.48
2019-04-25T19:53:31.569Z,98953.77
2019-04-25T19:56:00.869Z,98959.77
2019-04-25T19:58:30.101Z,98964.48
2019-04-25T20:00:59.285Z,98974.23
2019-04-25T20:03:58.569Z,98980.17
2019-04-25T20:07:05.084Z,98983.92
2019-04-25T20:09:53.217Z,98991.52
2019-04-25T20:12:23.226Z,98979.31
2019-04-25T20:14:53.505Z,98980.04
2019-04-25T20:17:22.813Z,98977.50
2019-04-25T20:19:51.981Z,98983.06
2019-04-25T20:22:21.158Z,98994.17
2019-04-25T20:24:50.664Z,99002.06
2019-04-25T20:27:20.164Z,98998.97
2019-04-25T20:29:49.345Z,98994.34
2019-04-25T20:32:18.553Z,98992.66
2019-04-25T20:34:47.728Z,98997.36
2019-04-25T20:37:16.883Z,98992.06
2019-04-25T20:39:46.078Z,99005.86
2019-04-25T20:42:15.253Z,99006.26
2019-04-25T20:44:45.567Z,99005.81
2019-04-25T20:47:15.449Z,99004.83
2019-04-25T20:49:44.658Z,99020.78
2019-04-25T20:52:13.841Z,99011.95
2019-04-25T20:54:43.080Z,99014.52
2019-04-25T20:57:12.227Z,99027.38
2019-04-25T20:59:41.394Z,99035.44
2019-04-25T21:02:10.695Z,99042.31
2019-04-25T21:04:40.219Z,99040.77
2019-04-25T21:07:09.478Z,99039.25
2019-04-25T21:09:38.962Z,99036.98
2019-04-25T21:12:08.370Z,99040.08
2019-04-25T21:14:49.239Z,99039.69
2019-04-25T21:17:22.582Z,99044.12
2019-04-25T21:19:52.814Z,99052.66
2019-04-25T21:22:22.092Z,99065.13
2019-04-25T21:24:51.868Z,99070.86
2019-04-25T21:27:21.076Z,99080.41
2019-04-25T21:29:52.005Z,99080.89
2019-04-25T21:32:22.722Z,99084.75
2019-04-25T21:34:53.034Z,99081.47
2019-04-25T21:37:22.293Z,99082.52
2019-04-25T21:40:03.244Z,99089.39
2019-04-25T21:42:57.996Z,99085.55
2019-04-25T21:45:27.482Z,99073.56
2019-04-25T21:47:56.907Z,99066.06
2019-04-25T21:50:26.353Z,99070.13
2019-04-25T21:52:55.603Z,99076.77
2019-04-25T21:55:25.115Z,99084.81
2019-04-25T21:57:55.846Z,99071.93
2019-04-25T22:00:43.371Z,99072.47
2019-04-25T22:03:13.515Z,99069.06
2019-04-25T22:05:42.892Z,99061.30
2019-04-25T22:08:12.419Z,99049.67
2019-04-25T22:10:41.884Z,99037.06
2019-04-25T22:13:16.932Z,99045.63
2019-04-25T22:15:42.732Z,99063.31
2019-04-25T22:18:11.924Z,99071.60
2019-04-25T22:20:41.154Z,99071.13
2019-04-25T22:23:10.592Z,99073.66
2019-04-25T22:25:40.017Z,99080.92
2019-04-25T22:28:09.342Z,99067.27
2019-04-25T22:30:39.242Z,99068.91
2019-04-25T22:33:30.139Z,99075.92
2019-04-25T22:36:04.154Z,99077.75
2019-04-25T22:38:33.318Z,99061.30
2019-04-25T22:41:03.554Z,99070.09
2019-04-25T22:43:35.026Z,99083.50
2019-04-25T22:46:04.456Z,99081.66
2019-04-25T22:48:49.229Z,99078.97
2019-04-25T22:51:18.724Z,99090.53
2019-04-25T22:53:48.478Z,99091.16
2019-04-25T22:56:17.664Z,99088.20
2019-04-25T22:58:47.041Z,99086.55
2019-04-25T23:01:34.199Z,99098.30
2019-04-25T23:04:08.017Z,99104.53
2019-04-25T23:06:37.641Z,99090.12
2019-04-25T23:09:08.190Z,99093.92
2019-04-25T23:11:37.406Z,99091.16
2019-04-25T23:14:07.146Z,99085.05
2019-04-25T23:16:36.463Z,99070.54
2019-04-25T23:19:05.690Z,99065.81
2019-04-25T23:21:35.436Z,99066.36
2019-04-25T23:24:05.485Z,99067.38
2019-04-25T23:26:52.658Z,99066.28
2019-04-25T23:29:21.826Z,99072.89
2019-04-25T23:31:51.171Z,99085.63
2019-04-25T23:34:20.637Z,99085.92
2019-04-25T23:36:49.801Z,99082.61
2019-04-25T23:39:19.224Z,99095.78
2019-04-25T23:41:48.397Z,99096.44
2019-04-25T23:44:17.534Z,99095.14
2019-04-25T23:46:46.830Z,99096.17
2019-04-25T23:49:16.990Z,99090.59
2019-04-25T23:51:46.584Z,99093.57
2019-04-25T23:54:15.721Z,99084.27
2019-04-25T23:56:45.011Z,99071.91
2019-04-25T23:59:14.421Z,99065.69
